RYR2KZ EGCC-EKCH
Flight info
| Callsign | RYR2KZ |
|---|---|
| Flight time | 1h 35m |
| Altitude | 37000 |
| Route | DESIG L603 LAMIX UT29 LIBSO UL975 ERDOW DCT ROPAL DCT LESRA DCT TESPI |
| Aircraft | B738/M-SDE2E3FGHIRWXY/LB1 |
Departure
| Time | 2026-05-03 20:52 |
|---|---|
| Airport | Manchester Airport (EGCC) |
Arrival
| Time | 2026-05-03 22:28 |
|---|---|
| Airport | Copenhagen Kastrup Airport (EKCH) |
| Time | Latitude | Longitude | Altitude | Speed | Heading |
|---|---|---|---|---|---|
| 2026-05-03 20:15 | 53.36085 | -2.26794 | 247 ft | 0 kts | 315° |
| 2026-05-03 20:32 | 53.36083 | -2.26791 | 227 ft | 2 kts | 314° |
| 2026-05-03 20:32 | 53.36071 | -2.26769 | 222 ft | 3 kts | 307° |
| 2026-05-03 20:32 | 53.36060 | -2.26741 | 247 ft | 3 kts | 294° |
| 2026-05-03 20:33 | 53.36055 | -2.26720 | 247 ft | 3 kts | 278° |
| 2026-05-03 20:33 | 53.36055 | -2.26691 | 247 ft | 2 kts | 241° |
| 2026-05-03 20:33 | 53.36058 | -2.26683 | 247 ft | 0 kts | 231° |
| 2026-05-03 20:38 | 53.36046 | -2.26708 | 247 ft | 6 kts | 230° |
| 2026-05-03 20:39 | 53.36021 | -2.26760 | 247 ft | 6 kts | 231° |
| 2026-05-03 20:39 | 53.35993 | -2.26819 | 247 ft | 8 kts | 232° |
| 2026-05-03 20:39 | 53.35939 | -2.26833 | 249 ft | 9 kts | 158° |
| 2026-05-03 20:39 | 53.35888 | -2.26865 | 253 ft | 8 kts | 229° |
| 2026-05-03 20:40 | 53.35852 | -2.26941 | 253 ft | 9 kts | 232° |
| 2026-05-03 20:40 | 53.35814 | -2.27045 | 252 ft | 13 kts | 240° |
| 2026-05-03 20:40 | 53.35812 | -2.27173 | 247 ft | 10 kts | 309° |
| 2026-05-03 20:40 | 53.35811 | -2.27274 | 247 ft | 10 kts | 230° |
| 2026-05-03 20:41 | 53.35770 | -2.27360 | 246 ft | 9 kts | 231° |
| 2026-05-03 20:41 | 53.35731 | -2.27441 | 247 ft | 8 kts | 231° |
| 2026-05-03 20:41 | 53.35704 | -2.27496 | 247 ft | 0 kts | 231° |
| 2026-05-03 20:44 | 53.35700 | -2.27503 | 247 ft | 4 kts | 231° |
| 2026-05-03 20:45 | 53.35674 | -2.27558 | 246 ft | 7 kts | 231° |
| 2026-05-03 20:45 | 53.35644 | -2.27615 | 246 ft | 6 kts | 225° |
| 2026-05-03 20:45 | 53.35612 | -2.27668 | 246 ft | 6 kts | 223° |
| 2026-05-03 20:45 | 53.35575 | -2.27729 | 246 ft | 10 kts | 224° |
| 2026-05-03 20:46 | 53.35517 | -2.27823 | 246 ft | 14 kts | 224° |
| 2026-05-03 20:46 | 53.35438 | -2.27950 | 243 ft | 17 kts | 224° |
| 2026-05-03 20:46 | 53.35349 | -2.28092 | 240 ft | 18 kts | 224° |
| 2026-05-03 20:46 | 53.35257 | -2.28249 | 235 ft | 20 kts | 229° |
| 2026-05-03 20:47 | 53.35170 | -2.28428 | 230 ft | 20 kts | 231° |
| 2026-05-03 20:47 | 53.35085 | -2.28604 | 232 ft | 19 kts | 231° |
| 2026-05-03 20:47 | 53.34998 | -2.28768 | 229 ft | 19 kts | 226° |
| 2026-05-03 20:47 | 53.34931 | -2.28885 | 227 ft | 10 kts | 226° |
| 2026-05-03 20:48 | 53.34874 | -2.28985 | 221 ft | 14 kts | 226° |
| 2026-05-03 20:48 | 53.34801 | -2.29124 | 214 ft | 17 kts | 231° |
| 2026-05-03 20:48 | 53.34729 | -2.29273 | 216 ft | 5 kts | 229° |
| 2026-05-03 20:48 | 53.34697 | -2.29314 | 212 ft | 6 kts | 210° |
| 2026-05-03 20:49 | 53.34675 | -2.29329 | 206 ft | 0 kts | 199° |
| 2026-05-03 20:50 | 53.34653 | -2.29340 | 207 ft | 5 kts | 192° |
| 2026-05-03 20:51 | 53.34609 | -2.29341 | 208 ft | 9 kts | 170° |
| 2026-05-03 20:51 | 53.34549 | -2.29293 | 209 ft | 9 kts | 137° |
| 2026-05-03 20:51 | 53.34538 | -2.29229 | 209 ft | 6 kts | 62° |
| 2026-05-03 20:51 | 53.34547 | -2.29208 | 214 ft | 0 kts | 51° |
| 2026-05-03 20:52 | 53.34721 | -2.28845 | 221 ft | 86 kts | 51° |
| 2026-05-03 20:52 | 53.35265 | -2.27738 | 282 ft | 158 kts | 50° |
| 2026-05-03 20:52 | 53.36028 | -2.26186 | 916 ft | 186 kts | 49° |
| 2026-05-03 20:53 | 53.36879 | -2.24419 | 1757 ft | 205 kts | 52° |
| 2026-05-03 20:53 | 53.37793 | -2.22458 | 2500 ft | 218 kts | 52° |
| 2026-05-03 20:53 | 53.38773 | -2.20442 | 3090 ft | 230 kts | 51° |
| 2026-05-03 20:53 | 53.39800 | -2.18246 | 3541 ft | 243 kts | 53° |
| 2026-05-03 20:54 | 53.40804 | -2.15998 | 4315 ft | 245 kts | 54° |
| 2026-05-03 20:54 | 53.42895 | -2.11203 | 5030 ft | 258 kts | 50° |
| 2026-05-03 20:54 | 53.44057 | -2.08877 | 5003 ft | 259 kts | 50° |
| 2026-05-03 20:55 | 53.45192 | -2.06586 | 5250 ft | 260 kts | 50° |
| 2026-05-03 20:55 | 53.46340 | -2.04207 | 5865 ft | 265 kts | 51° |
| 2026-05-03 20:55 | 53.47505 | -2.01761 | 6435 ft | 272 kts | 51° |
| 2026-05-03 20:55 | 53.48697 | -1.99251 | 7007 ft | 277 kts | 51° |
| 2026-05-03 20:56 | 53.49910 | -1.96717 | 7653 ft | 279 kts | 51° |
| 2026-05-03 20:56 | 53.51134 | -1.94161 | 8259 ft | 283 kts | 51° |
| 2026-05-03 20:56 | 53.52301 | -1.91465 | 8858 ft | 288 kts | 63° |
| 2026-05-03 20:56 | 53.52829 | -1.88241 | 9482 ft | 290 kts | 91° |
| 2026-05-03 20:57 | 53.52403 | -1.84935 | 10071 ft | 292 kts | 111° |
| 2026-05-03 20:57 | 53.51678 | -1.81714 | 10321 ft | 308 kts | 111° |
| 2026-05-03 20:57 | 53.50926 | -1.78229 | 10486 ft | 325 kts | 110° |
| 2026-05-03 20:57 | 53.50199 | -1.74592 | 10837 ft | 333 kts | 109° |
| 2026-05-03 20:58 | 53.49498 | -1.70854 | 11270 ft | 337 kts | 108° |
| 2026-05-03 20:58 | 53.48816 | -1.67065 | 11722 ft | 341 kts | 108° |
| 2026-05-03 20:58 | 53.48139 | -1.63253 | 12243 ft | 341 kts | 107° |
| 2026-05-03 20:58 | 53.47461 | -1.59424 | 12738 ft | 343 kts | 107° |
| 2026-05-03 20:59 | 53.46774 | -1.55565 | 13165 ft | 347 kts | 108° |
| 2026-05-03 20:59 | 53.46073 | -1.51654 | 13564 ft | 352 kts | 108° |
| 2026-05-03 20:59 | 53.45365 | -1.47712 | 14004 ft | 354 kts | 108° |
| 2026-05-03 20:59 | 53.44654 | -1.43754 | 14440 ft | 355 kts | 108° |
| 2026-05-03 21:00 | 53.43949 | -1.39840 | 14841 ft | 357 kts | 108° |
| 2026-05-03 21:00 | 53.43464 | -1.37148 | 15101 ft | 358 kts | 108° |
| 2026-05-03 21:00 | 53.42502 | -1.31827 | 15623 ft | 361 kts | 108° |
| 2026-05-03 21:00 | 53.41769 | -1.27789 | 16012 ft | 363 kts | 108° |
| 2026-05-03 21:01 | 53.41032 | -1.23723 | 16384 ft | 366 kts | 108° |
| 2026-05-03 21:01 | 53.40290 | -1.19637 | 16755 ft | 368 kts | 108° |
| 2026-05-03 21:01 | 53.39541 | -1.15529 | 17123 ft | 370 kts | 108° |
| 2026-05-03 21:01 | 53.38785 | -1.11398 | 17478 ft | 372 kts | 108° |
| 2026-05-03 21:02 | 53.38033 | -1.07298 | 17822 ft | 374 kts | 109° |
| 2026-05-03 21:02 | 53.37267 | -1.03122 | 18172 ft | 376 kts | 109° |
| 2026-05-03 21:02 | 53.36495 | -0.98928 | 18439 ft | 379 kts | 109° |
| 2026-05-03 21:02 | 53.35716 | -0.94698 | 18727 ft | 380 kts | 109° |
| 2026-05-03 21:03 | 53.34935 | -0.90469 | 19057 ft | 381 kts | 109° |
| 2026-05-03 21:03 | 53.34151 | -0.86232 | 19356 ft | 382 kts | 109° |
| 2026-05-03 21:03 | 53.33363 | -0.81974 | 19646 ft | 383 kts | 109° |
| 2026-05-03 21:03 | 53.32570 | -0.77714 | 19939 ft | 384 kts | 109° |
| 2026-05-03 21:04 | 53.31781 | -0.73439 | 20223 ft | 386 kts | 107° |
| 2026-05-03 21:04 | 53.31415 | -0.68981 | 20461 ft | 391 kts | 89° |
| 2026-05-03 21:04 | 53.31828 | -0.64492 | 20739 ft | 393 kts | 73° |
| 2026-05-03 21:04 | 53.32884 | -0.60283 | 21020 ft | 394 kts | 65° |
| 2026-05-03 21:05 | 53.34071 | -0.56209 | 21260 ft | 395 kts | 64° |
| 2026-05-03 21:05 | 53.35286 | -0.52065 | 21484 ft | 397 kts | 64° |
| 2026-05-03 21:05 | 53.36488 | -0.47899 | 21725 ft | 398 kts | 65° |
| 2026-05-03 21:05 | 53.37676 | -0.43699 | 21971 ft | 399 kts | 65° |
| 2026-05-03 21:06 | 53.38855 | -0.39485 | 22194 ft | 400 kts | 65° |
| 2026-05-03 21:06 | 53.40031 | -0.35256 | 22417 ft | 401 kts | 65° |
| 2026-05-03 21:06 | 53.41218 | -0.31010 | 22615 ft | 403 kts | 65° |
| 2026-05-03 21:06 | 53.42412 | -0.26762 | 22851 ft | 403 kts | 65° |
| 2026-05-03 21:07 | 53.43610 | -0.22502 | 23046 ft | 405 kts | 65° |
| 2026-05-03 21:07 | 53.44809 | -0.18229 | 23286 ft | 405 kts | 65° |
| 2026-05-03 21:07 | 53.46009 | -0.13944 | 23476 ft | 406 kts | 65° |
| 2026-05-03 21:07 | 53.47193 | -0.09703 | 23634 ft | 407 kts | 65° |
| 2026-05-03 21:08 | 53.48396 | -0.05385 | 23776 ft | 408 kts | 66° |
| 2026-05-03 21:08 | 53.49599 | -0.01061 | 23910 ft | 410 kts | 66° |
| 2026-05-03 21:08 | 53.50808 | 0.03294 | 23960 ft | 413 kts | 66° |
| 2026-05-03 21:08 | 53.52028 | 0.07671 | 24036 ft | 415 kts | 64° |
| 2026-05-03 21:09 | 53.53497 | 0.11858 | 24169 ft | 417 kts | 54° |
| 2026-05-03 21:09 | 53.55232 | 0.15762 | 24330 ft | 417 kts | 53° |
| 2026-05-03 21:09 | 53.57004 | 0.19635 | 24449 ft | 418 kts | 52° |
| 2026-05-03 21:09 | 53.58785 | 0.23509 | 24561 ft | 420 kts | 52° |
| 2026-05-03 21:10 | 53.60569 | 0.27406 | 24680 ft | 421 kts | 53° |
| 2026-05-03 21:10 | 53.62351 | 0.31326 | 24795 ft | 422 kts | 53° |
| 2026-05-03 21:10 | 53.64104 | 0.35211 | 24906 ft | 423 kts | 53° |
| 2026-05-03 21:10 | 53.65877 | 0.39162 | 25008 ft | 424 kts | 53° |
| 2026-05-03 21:11 | 53.67652 | 0.43132 | 25119 ft | 425 kts | 53° |
| 2026-05-03 21:11 | 53.69431 | 0.47122 | 25225 ft | 426 kts | 53° |
| 2026-05-03 21:11 | 53.71210 | 0.51123 | 25327 ft | 426 kts | 53° |
| 2026-05-03 21:11 | 53.72993 | 0.55138 | 25379 ft | 429 kts | 53° |
| 2026-05-03 21:12 | 53.74785 | 0.59181 | 25419 ft | 431 kts | 53° |
| 2026-05-03 21:12 | 53.76583 | 0.63245 | 25540 ft | 431 kts | 53° |
| 2026-05-03 21:12 | 53.78378 | 0.67307 | 25660 ft | 431 kts | 53° |
| 2026-05-03 21:12 | 53.80174 | 0.71377 | 25744 ft | 432 kts | 54° |
| 2026-05-03 21:13 | 53.81972 | 0.75457 | 25826 ft | 433 kts | 54° |
| 2026-05-03 21:13 | 53.83773 | 0.79554 | 25914 ft | 434 kts | 54° |
| 2026-05-03 21:13 | 53.85576 | 0.83660 | 26005 ft | 435 kts | 54° |
| 2026-05-03 21:13 | 53.87381 | 0.87776 | 26082 ft | 436 kts | 54° |
| 2026-05-03 21:14 | 53.89188 | 0.91907 | 26167 ft | 436 kts | 54° |
| 2026-05-03 21:14 | 53.90970 | 0.95985 | 26264 ft | 437 kts | 54° |
| 2026-05-03 21:14 | 53.92780 | 1.00134 | 26325 ft | 437 kts | 54° |
| 2026-05-03 21:14 | 53.94589 | 1.04289 | 26402 ft | 438 kts | 54° |
| 2026-05-03 21:15 | 53.96400 | 1.08455 | 26415 ft | 440 kts | 54° |
| 2026-05-03 21:15 | 53.98222 | 1.12651 | 26431 ft | 442 kts | 54° |
| 2026-05-03 21:15 | 54.00045 | 1.16861 | 26507 ft | 443 kts | 54° |
| 2026-05-03 21:15 | 54.01873 | 1.21084 | 26609 ft | 442 kts | 54° |
| 2026-05-03 21:16 | 54.03694 | 1.25303 | 26692 ft | 443 kts | 54° |
| 2026-05-03 21:16 | 54.05492 | 1.29474 | 26753 ft | 443 kts | 54° |
| 2026-05-03 21:16 | 54.07316 | 1.33711 | 26815 ft | 444 kts | 54° |
| 2026-05-03 21:16 | 54.09137 | 1.37951 | 26905 ft | 444 kts | 54° |
| 2026-05-03 21:17 | 54.10959 | 1.42197 | 26982 ft | 444 kts | 54° |
| 2026-05-03 21:17 | 54.12166 | 1.45016 | 27021 ft | 444 kts | 54° |
| 2026-05-03 21:17 | 54.14602 | 1.50713 | 27088 ft | 445 kts | 54° |
| 2026-05-03 21:17 | 54.16427 | 1.54989 | 27135 ft | 446 kts | 54° |
| 2026-05-03 21:18 | 54.18248 | 1.59265 | 27181 ft | 446 kts | 54° |
| 2026-05-03 21:18 | 54.20075 | 1.63562 | 27201 ft | 448 kts | 54° |
| 2026-05-03 21:18 | 54.21883 | 1.67818 | 27224 ft | 449 kts | 54° |
| 2026-05-03 21:18 | 54.23715 | 1.72142 | 27298 ft | 449 kts | 54° |
| 2026-05-03 21:19 | 54.25546 | 1.76469 | 27392 ft | 449 kts | 54° |
| 2026-05-03 21:19 | 54.27375 | 1.80798 | 27470 ft | 448 kts | 54° |
| 2026-05-03 21:19 | 54.29202 | 1.85132 | 27508 ft | 449 kts | 54° |
| 2026-05-03 21:19 | 54.31028 | 1.89469 | 27542 ft | 450 kts | 54° |
| 2026-05-03 21:20 | 54.32859 | 1.93826 | 27578 ft | 450 kts | 54° |
| 2026-05-03 21:20 | 54.34660 | 1.98122 | 27636 ft | 451 kts | 54° |
| 2026-05-03 21:20 | 54.36346 | 2.02147 | 27674 ft | 451 kts | 54° |
| 2026-05-03 21:21 | 54.37882 | 2.05822 | 27707 ft | 451 kts | 54° |
| 2026-05-03 21:21 | 54.37935 | 2.05949 | 27709 ft | 451 kts | 54° |
| 2026-05-03 21:22 | 54.38337 | 2.06910 | 27719 ft | 451 kts | 54° |
| 2026-05-03 21:22 | 54.40165 | 2.11292 | 27760 ft | 452 kts | 55° |
| 2026-05-03 21:22 | 54.41994 | 2.15684 | 27769 ft | 452 kts | 54° |
| 2026-05-03 21:23 | 54.43801 | 2.20029 | 27776 ft | 454 kts | 55° |
| 2026-05-03 21:23 | 54.45633 | 2.24444 | 27793 ft | 455 kts | 55° |
| 2026-05-03 21:23 | 54.47468 | 2.28873 | 27833 ft | 455 kts | 55° |
| 2026-05-03 21:23 | 54.49302 | 2.33307 | 27900 ft | 455 kts | 55° |
| 2026-05-03 21:24 | 54.51134 | 2.37745 | 27940 ft | 455 kts | 55° |
| 2026-05-03 21:24 | 54.52965 | 2.42189 | 27963 ft | 455 kts | 55° |
| 2026-05-03 21:24 | 54.56624 | 2.51092 | 28039 ft | 456 kts | 55° |
| 2026-05-03 21:25 | 54.60257 | 2.59964 | 28100 ft | 456 kts | 55° |
| 2026-05-03 21:25 | 54.63912 | 2.68920 | 28164 ft | 457 kts | 55° |
| 2026-05-03 21:26 | 54.67571 | 2.77920 | 28161 ft | 459 kts | 55° |
| 2026-05-03 21:26 | 54.71237 | 2.86969 | 28187 ft | 460 kts | 55° |
| 2026-05-03 21:27 | 54.74875 | 2.95982 | 28299 ft | 459 kts | 55° |
| 2026-05-03 21:27 | 54.78526 | 3.05063 | 28330 ft | 460 kts | 56° |
| 2026-05-03 21:28 | 54.82181 | 3.14183 | 28379 ft | 461 kts | 56° |
| 2026-05-03 21:28 | 54.85829 | 3.23321 | 28424 ft | 461 kts | 56° |
| 2026-05-03 21:29 | 54.89477 | 3.32493 | 28424 ft | 462 kts | 56° |
| 2026-05-03 21:29 | 54.93099 | 3.41632 | 28450 ft | 463 kts | 56° |
| 2026-05-03 21:30 | 54.96743 | 3.50865 | 28513 ft | 463 kts | 56° |
| 2026-05-03 21:30 | 55.00378 | 3.60106 | 28574 ft | 462 kts | 56° |
| 2026-05-03 21:31 | 55.04008 | 3.69371 | 28603 ft | 463 kts | 56° |
| 2026-05-03 21:31 | 55.07608 | 3.78593 | 28630 ft | 463 kts | 56° |
| 2026-05-03 21:32 | 55.11227 | 3.87895 | 28623 ft | 464 kts | 56° |
| 2026-05-03 21:32 | 55.14628 | 3.97457 | 28607 ft | 463 kts | 67° |
| 2026-05-03 21:33 | 55.17107 | 4.07839 | 28642 ft | 463 kts | 70° |
| 2026-05-03 21:33 | 55.19511 | 4.18290 | 28671 ft | 463 kts | 70° |
| 2026-05-03 21:34 | 55.21936 | 4.28652 | 28731 ft | 462 kts | 69° |
| 2026-05-03 21:34 | 55.24394 | 4.39067 | 28751 ft | 463 kts | 69° |
| 2026-05-03 21:35 | 55.26851 | 4.49501 | 28738 ft | 464 kts | 70° |
| 2026-05-03 21:35 | 55.29302 | 4.59976 | 28750 ft | 464 kts | 70° |
| 2026-05-03 21:36 | 55.31729 | 4.70397 | 28760 ft | 465 kts | 70° |
| 2026-05-03 21:36 | 55.34164 | 4.80911 | 28781 ft | 465 kts | 70° |
| 2026-05-03 21:37 | 55.36592 | 4.91443 | 28802 ft | 465 kts | 70° |
| 2026-05-03 21:37 | 55.38890 | 5.02053 | 28800 ft | 463 kts | 78° |
| 2026-05-03 21:38 | 55.40225 | 5.13014 | 28824 ft | 461 kts | 82° |
| 2026-05-03 21:38 | 55.41405 | 5.24100 | 28850 ft | 461 kts | 82° |
| 2026-05-03 21:39 | 55.42612 | 5.35182 | 28833 ft | 461 kts | 82° |
| 2026-05-03 21:39 | 55.43851 | 5.46270 | 28862 ft | 460 kts | 82° |
| 2026-05-03 21:40 | 55.45081 | 5.57232 | 28901 ft | 459 kts | 82° |
| 2026-05-03 21:40 | 55.46310 | 5.68267 | 28928 ft | 459 kts | 82° |
| 2026-05-03 21:41 | 55.47527 | 5.79310 | 28921 ft | 458 kts | 82° |
| 2026-05-03 21:41 | 55.48729 | 5.90301 | 28916 ft | 454 kts | 83° |
| 2026-05-03 21:42 | 55.49910 | 6.01209 | 28916 ft | 451 kts | 83° |
| 2026-05-03 21:42 | 55.51067 | 6.11992 | 28917 ft | 449 kts | 83° |
| 2026-05-03 21:43 | 55.52216 | 6.22797 | 28916 ft | 447 kts | 83° |
| 2026-05-03 21:43 | 55.53350 | 6.33562 | 28913 ft | 446 kts | 83° |
| 2026-05-03 21:44 | 55.54473 | 6.44316 | 28914 ft | 445 kts | 83° |
| 2026-05-03 21:44 | 55.55576 | 6.54975 | 28909 ft | 444 kts | 83° |
| 2026-05-03 21:45 | 55.56678 | 6.65706 | 28909 ft | 443 kts | 83° |
| 2026-05-03 21:45 | 55.57767 | 6.76416 | 28902 ft | 442 kts | 83° |
| 2026-05-03 21:46 | 55.58844 | 6.87099 | 28902 ft | 441 kts | 84° |
| 2026-05-03 21:46 | 55.59902 | 6.97697 | 28908 ft | 440 kts | 84° |
| 2026-05-03 21:47 | 55.60956 | 7.08359 | 28898 ft | 440 kts | 84° |
| 2026-05-03 21:47 | 55.61999 | 7.19005 | 28899 ft | 439 kts | 84° |
| 2026-05-03 21:48 | 55.63032 | 7.29648 | 28872 ft | 438 kts | 85° |
| 2026-05-03 21:48 | 55.64053 | 7.40262 | 28888 ft | 437 kts | 85° |
| 2026-05-03 21:49 | 55.65056 | 7.50789 | 28894 ft | 436 kts | 85° |
| 2026-05-03 21:49 | 55.66054 | 7.61365 | 28892 ft | 436 kts | 85° |
| 2026-05-03 21:50 | 55.67042 | 7.71950 | 28888 ft | 435 kts | 85° |
| 2026-05-03 21:50 | 55.68022 | 7.82549 | 28896 ft | 438 kts | 86° |
| 2026-05-03 21:51 | 55.68994 | 7.93164 | 28889 ft | 441 kts | 86° |
| 2026-05-03 21:51 | 55.69971 | 8.03934 | 28891 ft | 444 kts | 86° |
| 2026-05-03 21:52 | 55.70944 | 8.14765 | 28882 ft | 446 kts | 86° |
| 2026-05-03 21:52 | 55.71911 | 8.25650 | 28879 ft | 448 kts | 86° |
| 2026-05-03 21:53 | 55.72872 | 8.36567 | 28879 ft | 449 kts | 86° |
| 2026-05-03 21:53 | 55.73819 | 8.47455 | 28859 ft | 450 kts | 86° |
| 2026-05-03 21:54 | 55.74765 | 8.58432 | 28868 ft | 450 kts | 87° |
| 2026-05-03 21:54 | 55.75700 | 8.69417 | 28869 ft | 451 kts | 87° |
| 2026-05-03 21:55 | 55.76627 | 8.80431 | 28863 ft | 451 kts | 87° |
| 2026-05-03 21:55 | 55.77539 | 8.91380 | 28863 ft | 451 kts | 87° |
| 2026-05-03 21:56 | 55.78449 | 9.02424 | 28864 ft | 452 kts | 87° |
| 2026-05-03 21:56 | 55.79348 | 9.13463 | 28827 ft | 451 kts | 87° |
| 2026-05-03 21:57 | 55.80237 | 9.24511 | 28838 ft | 452 kts | 87° |
| 2026-05-03 21:57 | 55.81116 | 9.35564 | 28841 ft | 452 kts | 87° |
| 2026-05-03 21:58 | 55.81981 | 9.46567 | 28855 ft | 452 kts | 87° |
| 2026-05-03 21:58 | 55.82842 | 9.57647 | 28856 ft | 452 kts | 87° |
| 2026-05-03 21:59 | 55.83680 | 9.68439 | 28812 ft | 420 kts | 88° |
| 2026-05-03 21:59 | 55.84070 | 9.73442 | 28819 ft | 397 kts | 88° |
| 2026-05-03 21:59 | 55.84435 | 9.78178 | 28825 ft | 376 kts | 89° |
| 2026-05-03 22:00 | 55.84771 | 9.82603 | 28816 ft | 357 kts | 89° |
| 2026-05-03 22:00 | 55.85093 | 9.86906 | 28547 ft | 346 kts | 90° |
| 2026-05-03 22:00 | 55.85402 | 9.91102 | 28138 ft | 340 kts | 90° |
| 2026-05-03 22:00 | 55.85704 | 9.95256 | 27555 ft | 339 kts | 90° |
| 2026-05-03 22:01 | 55.86007 | 9.99515 | 26378 ft | 357 kts | 89° |
| 2026-05-03 22:01 | 55.86326 | 10.04001 | 25613 ft | 363 kts | 88° |
| 2026-05-03 22:01 | 55.86649 | 10.08366 | 25377 ft | 352 kts | 89° |
| 2026-05-03 22:01 | 55.86964 | 10.12629 | 25143 ft | 345 kts | 89° |
| 2026-05-03 22:02 | 55.87268 | 10.16832 | 24829 ft | 351 kts | 89° |
| 2026-05-03 22:02 | 55.87580 | 10.21247 | 24506 ft | 369 kts | 88° |
| 2026-05-03 22:02 | 55.87907 | 10.25880 | 24188 ft | 380 kts | 87° |
| 2026-05-03 22:02 | 55.88240 | 10.30499 | 23807 ft | 371 kts | 87° |
| 2026-05-03 22:03 | 55.88565 | 10.34991 | 23467 ft | 361 kts | 87° |
| 2026-05-03 22:03 | 55.88877 | 10.39362 | 23079 ft | 351 kts | 88° |
| 2026-05-03 22:03 | 55.89178 | 10.43625 | 22737 ft | 342 kts | 88° |
| 2026-05-03 22:03 | 55.89468 | 10.47773 | 22435 ft | 334 kts | 88° |
| 2026-05-03 22:04 | 55.89746 | 10.51858 | 22129 ft | 331 kts | 90° |
| 2026-05-03 22:04 | 55.89603 | 10.55857 | 21832 ft | 331 kts | 108° |
| 2026-05-03 22:04 | 55.89075 | 10.59968 | 21553 ft | 349 kts | 109° |
| 2026-05-03 22:04 | 55.88528 | 10.64197 | 21183 ft | 347 kts | 108° |
| 2026-05-03 22:05 | 55.88009 | 10.68326 | 20825 ft | 337 kts | 108° |
| 2026-05-03 22:05 | 55.87514 | 10.72337 | 20499 ft | 326 kts | 108° |
| 2026-05-03 22:05 | 55.87036 | 10.76227 | 20193 ft | 318 kts | 108° |
| 2026-05-03 22:05 | 55.86566 | 10.80044 | 19886 ft | 312 kts | 108° |
| 2026-05-03 22:06 | 55.86103 | 10.83814 | 19618 ft | 313 kts | 108° |
| 2026-05-03 22:06 | 55.85624 | 10.87671 | 19356 ft | 328 kts | 108° |
| 2026-05-03 22:06 | 55.85125 | 10.91670 | 19041 ft | 340 kts | 107° |
| 2026-05-03 22:06 | 55.84608 | 10.95738 | 18685 ft | 332 kts | 109° |
| 2026-05-03 22:07 | 55.84046 | 10.99652 | 18365 ft | 321 kts | 110° |
| 2026-05-03 22:07 | 55.83481 | 11.03430 | 18048 ft | 312 kts | 110° |
| 2026-05-03 22:07 | 55.82925 | 11.07117 | 17719 ft | 306 kts | 110° |
| 2026-05-03 22:07 | 55.82380 | 11.10736 | 17399 ft | 302 kts | 110° |
| 2026-05-03 22:08 | 55.81835 | 11.14363 | 17124 ft | 308 kts | 110° |
| 2026-05-03 22:08 | 55.81264 | 11.18145 | 16854 ft | 325 kts | 110° |
| 2026-05-03 22:08 | 55.80685 | 11.22012 | 16523 ft | 327 kts | 109° |
| 2026-05-03 22:08 | 55.80115 | 11.25859 | 16179 ft | 317 kts | 109° |
| 2026-05-03 22:09 | 55.79564 | 11.29577 | 15865 ft | 306 kts | 110° |
| 2026-05-03 22:09 | 55.79027 | 11.33183 | 15574 ft | 297 kts | 110° |
| 2026-05-03 22:09 | 55.78500 | 11.36699 | 15301 ft | 293 kts | 110° |
| 2026-05-03 22:10 | 55.77433 | 11.43763 | 14767 ft | 310 kts | 109° |
| 2026-05-03 22:10 | 55.77054 | 11.47628 | 14465 ft | 322 kts | 100° |
| 2026-05-03 22:10 | 55.76853 | 11.51544 | 14137 ft | 315 kts | 98° |
| 2026-05-03 22:10 | 55.76690 | 11.55359 | 13826 ft | 305 kts | 99° |
| 2026-05-03 22:11 | 55.76525 | 11.58997 | 13513 ft | 296 kts | 99° |
| 2026-05-03 22:11 | 55.76345 | 11.62601 | 13211 ft | 291 kts | 100° |
| 2026-05-03 22:11 | 55.76156 | 11.66169 | 12925 ft | 289 kts | 100° |
| 2026-05-03 22:11 | 55.75956 | 11.69755 | 12666 ft | 299 kts | 100° |
| 2026-05-03 22:12 | 55.75742 | 11.73504 | 12382 ft | 310 kts | 100° |
| 2026-05-03 22:12 | 55.75526 | 11.77307 | 12050 ft | 306 kts | 100° |
| 2026-05-03 22:12 | 55.75315 | 11.81004 | 11742 ft | 296 kts | 100° |
| 2026-05-03 22:12 | 55.75108 | 11.84592 | 11448 ft | 287 kts | 100° |
| 2026-05-03 22:13 | 55.74904 | 11.88083 | 11164 ft | 283 kts | 101° |
| 2026-05-03 22:13 | 55.74703 | 11.91497 | 10902 ft | 281 kts | 102° |
| 2026-05-03 22:13 | 55.74493 | 11.94989 | 10657 ft | 291 kts | 102° |
| 2026-05-03 22:13 | 55.74273 | 11.98641 | 10382 ft | 302 kts | 101° |
| 2026-05-03 22:14 | 55.74054 | 12.02336 | 10072 ft | 298 kts | 101° |
| 2026-05-03 22:14 | 55.73845 | 12.05907 | 9909 ft | 284 kts | 102° |
| 2026-05-03 22:14 | 55.73642 | 12.09321 | 9646 ft | 275 kts | 102° |
| 2026-05-03 22:14 | 55.73440 | 12.12657 | 9374 ft | 271 kts | 102° |
| 2026-05-03 22:15 | 55.73236 | 12.15974 | 9108 ft | 271 kts | 102° |
| 2026-05-03 22:15 | 55.73030 | 12.19298 | 8864 ft | 281 kts | 102° |
| 2026-05-03 22:15 | 55.72812 | 12.22796 | 8591 ft | 288 kts | 102° |
| 2026-05-03 22:15 | 55.72598 | 12.26292 | 8291 ft | 281 kts | 102° |
| 2026-05-03 22:16 | 55.72392 | 12.29680 | 8013 ft | 272 kts | 102° |
| 2026-05-03 22:16 | 55.72188 | 12.32977 | 7733 ft | 266 kts | 102° |
| 2026-05-03 22:16 | 55.71986 | 12.36215 | 7474 ft | 264 kts | 102° |
| 2026-05-03 22:16 | 55.71781 | 12.39464 | 7218 ft | 267 kts | 102° |
| 2026-05-03 22:17 | 55.71567 | 12.42793 | 6962 ft | 276 kts | 102° |
| 2026-05-03 22:17 | 55.71351 | 12.46191 | 6697 ft | 277 kts | 102° |
| 2026-05-03 22:17 | 55.71154 | 12.49502 | 6399 ft | 273 kts | 98° |
| 2026-05-03 22:17 | 55.71497 | 12.52823 | 6035 ft | 279 kts | 69° |
| 2026-05-03 22:18 | 55.72377 | 12.55839 | 5735 ft | 272 kts | 66° |
| 2026-05-03 22:18 | 55.73243 | 12.58793 | 5394 ft | 267 kts | 67° |
| 2026-05-03 22:18 | 55.74084 | 12.61701 | 5075 ft | 262 kts | 66° |
| 2026-05-03 22:18 | 55.74960 | 12.64485 | 4823 ft | 258 kts | 54° |
| 2026-05-03 22:19 | 55.76255 | 12.66680 | 4599 ft | 257 kts | 41° |
| 2026-05-03 22:19 | 55.77617 | 12.68708 | 4354 ft | 253 kts | 41° |
| 2026-05-03 22:19 | 55.78942 | 12.70720 | 4118 ft | 247 kts | 42° |
| 2026-05-03 22:19 | 55.80226 | 12.72695 | 3893 ft | 241 kts | 43° |
| 2026-05-03 22:20 | 55.81455 | 12.74604 | 3659 ft | 234 kts | 43° |
| 2026-05-03 22:20 | 55.82650 | 12.76467 | 3484 ft | 223 kts | 44° |
| 2026-05-03 22:20 | 55.83792 | 12.78250 | 3252 ft | 215 kts | 43° |
| 2026-05-03 22:20 | 55.84858 | 12.80047 | 3011 ft | 208 kts | 57° |
| 2026-05-03 22:21 | 55.85333 | 12.82335 | 2905 ft | 192 kts | 97° |
| 2026-05-03 22:21 | 55.85084 | 12.84627 | 3013 ft | 192 kts | 111° |
| 2026-05-03 22:21 | 55.84713 | 12.86954 | 2961 ft | 196 kts | 112° |
| 2026-05-03 22:21 | 55.84327 | 12.89220 | 2902 ft | 186 kts | 114° |
| 2026-05-03 22:22 | 55.83866 | 12.91310 | 2826 ft | 186 kts | 120° |
| 2026-05-03 22:22 | 55.83204 | 12.93400 | 2863 ft | 197 kts | 136° |
| 2026-05-03 22:22 | 55.82196 | 12.94919 | 2764 ft | 183 kts | 154° |
| 2026-05-03 22:22 | 55.81048 | 12.95534 | 2592 ft | 165 kts | 181° |
| 2026-05-03 22:23 | 55.80047 | 12.94840 | 2548 ft | 155 kts | 221° |
| 2026-05-03 22:23 | 55.79268 | 12.93496 | 2562 ft | 160 kts | 221° |
| 2026-05-03 22:23 | 55.78475 | 12.92131 | 2496 ft | 156 kts | 220° |
| 2026-05-03 22:23 | 55.77676 | 12.90844 | 2222 ft | 153 kts | 220° |
| 2026-05-03 22:24 | 55.76889 | 12.89586 | 2025 ft | 152 kts | 220° |
| 2026-05-03 22:24 | 55.76127 | 12.88313 | 1736 ft | 150 kts | 221° |
| 2026-05-03 22:24 | 55.75361 | 12.87077 | 1512 ft | 146 kts | 217° |
| 2026-05-03 22:24 | 55.74550 | 12.85936 | 1005 ft | 157 kts | 220° |
| 2026-05-03 22:25 | 55.73718 | 12.84640 | 655 ft | 151 kts | 219° |
| 2026-05-03 22:25 | 55.72933 | 12.83506 | 597 ft | 147 kts | 220° |
| 2026-05-03 22:25 | 55.72171 | 12.82303 | 406 ft | 146 kts | 223° |
| 2026-05-03 22:25 | 55.71428 | 12.81106 | 221 ft | 141 kts | 225° |
| 2026-05-03 22:26 | 55.70704 | 12.79925 | 97 ft | 148 kts | 226° |
| 2026-05-03 22:26 | 55.70019 | 12.78721 | 183 ft | 133 kts | 227° |
| 2026-05-03 22:26 | 55.69319 | 12.77495 | 238 ft | 146 kts | 226° |
| 2026-05-03 22:26 | 55.68638 | 12.76421 | 430 ft | 135 kts | 223° |
| 2026-05-03 22:27 | 55.67890 | 12.75292 | 453 ft | 137 kts | 222° |
| 2026-05-03 22:27 | 55.67167 | 12.74209 | 574 ft | 147 kts | 220° |
| 2026-05-03 22:27 | 55.66432 | 12.73207 | 631 ft | 114 kts | 219° |
| 2026-05-03 22:27 | 55.65891 | 12.72408 | 367 ft | 95 kts | 218° |
| 2026-05-03 22:28 | 55.65432 | 12.72197 | 10 ft | 2 kts | 244° |